Time;durP1;ratioP1;P1;durP2;ratioP2;P2;SDS_P1;SDS_P2;PMS_P1;PMS_P2;Temp;Humidity;BMP_temperature;BMP_pressure;BME280_temperature;BME280_humidity;BME280_pressure;Samples;Min_cycle;Max_cycle;Signal;HPM_P1;HPM_P2
2022/10/01 00:02:40;;;;;;;;;1.00;1.00;;;;;21.91;48.16;101390.53;146622;659;46010;-72
2022/10/01 00:05:41;;;;;;;;;1.00;1.00;;;;;21.88;48.39;101382.56;146617;612;46014;-73
2022/10/01 00:08:36;;;;;;;;;2.67;2.00;;;;;21.86;48.33;101373.72;146621;597;46028;-72
2022/10/01 00:11:41;;;;;;;;;1.67;1.67;;;;;21.83;48.06;101353.44;146619;607;46016;-71
2022/10/01 00:14:39;;;;;;;;;1.00;1.00;;;;;21.83;48.14;101331.44;146621;583;46029;-73
2022/10/01 00:17:38;;;;;;;;;2.00;2.00;;;;;21.83;47.80;101334.97;146617;615;46014;-72
2022/10/01 00:20:30;;;;;;;;;1.67;1.67;;;;;21.87;47.23;101330.66;146619;588;46029;-72
2022/10/01 00:23:24;;;;;;;;;1.75;1.25;;;;;21.91;47.37;101311.34;146617;635;46017;-71
2022/10/01 00:26:26;;;;;;;;;3.00;2.00;;;;;21.97;47.01;101300.84;146619;581;46020;-71
2022/10/01 00:29:21;;;;;;;;;2.00;2.00;;;;;22.03;47.60;101293.00;146617;567;46016;-72
2022/10/01 00:32:24;;;;;;;;;2.25;1.25;;;;;22.06;48.30;101278.97;146622;611;46020;-71
2022/10/01 00:35:18;;;;;;;;;2.00;2.00;;;;;22.12;48.03;101273.78;146618;576;46012;-73
2022/10/01 00:38:16;;;;;;;;;1.00;1.00;;;;;22.20;47.72;101284.44;146620;626;47012;-71
2022/10/01 00:41:15;;;;;;;;;4.67;1.33;;;;;22.29;47.71;101281.94;146621;571;46012;-70
2022/10/01 00:44:38;;;;;;;;;1.33;1.33;;;;;20.59;46.51;100963.03;146617;590;46011;-69
2022/10/01 00:47:39;;;;;;;;;3.50;2.50;;;;;22.46;47.28;101260.97;146615;601;47014;-70
2022/10/01 00:50:47;;;;;;;;;2.00;2.00;;;;;22.50;47.66;101274.25;146621;629;46020;-70
2022/10/01 00:53:43;;;;;;;;;5.00;2.00;;;;;22.52;47.62;101275.16;146619;565;47012;-70
2022/10/01 00:56:36;;;;;;;;;2.33;1.00;;;;;22.54;47.80;101275.16;146621;577;46020;-71
2022/10/01 00:59:38;;;;;;;;;2.33;2.00;;;;;22.47;47.87;101263.66;146617;595;47015;-71
2022/10/01 01:02:42;;;;;;;;;3.25;1.00;;;;;22.37;48.37;101264.41;146638;681;45020;-72
2022/10/01 01:05:38;;;;;;;;;2.00;1.75;;;;;22.34;48.26;101275.84;146637;565;45016;-73
2022/10/01 01:08:38;;;;;;;;;1.75;1.00;;;;;22.37;48.27;101275.88;146636;573;45011;-73
2022/10/01 01:11:53;;;;;;;;;1.00;1.00;;;;;22.34;47.74;101286.41;146634;569;45016;-73
2022/10/01 01:15:39;;;;;;;;;3.00;2.00;;;;;22.28;47.70;101293.38;146633;581;45011;-71
2022/10/01 01:18:57;;;;;;;;;3.00;3.00;;;;;22.16;48.93;101287.91;146636;582;45012;-71
2022/10/01 01:22:02;;;;;;;;;3.00;3.00;;;;;22.04;48.86;101299.19;146639;570;45020;-73
2022/10/01 01:25:28;;;;;;;;;4.00;3.00;;;;;22.03;48.86;101331.75;146630;697;45916;-72
2022/10/01 01:28:32;;;;;;;;;3.50;2.75;;;;;22.01;49.81;101331.72;146637;598;46010;-71
2022/10/01 01:31:51;;;;;;;;;3.50;3.00;;;;;19.88;49.22;100964.56;146633;563;46012;-71
2022/10/01 01:35:03;;;;;;;;;3.67;2.00;;;;;21.83;49.76;101316.47;146638;578;46012;-71
2022/10/01 01:38:23;;;;;;;;;2.50;1.50;;;;;21.66;49.89;101313.59;146634;579;45916;-72
2022/10/01 01:41:47;;;;;;;;;1.00;1.00;;;;;21.49;50.07;101316.84;146633;578;46022;-72
2022/10/01 01:45:04;;;;;;;;;3.00;3.00;;;;;19.54;49.89;100991.97;146634;571;46012;-73
2022/10/01 01:48:11;;;;;;;;;4.00;3.00;;;;;21.28;51.72;101302.41;146636;694;45020;-72
2022/10/01 01:51:37;;;;;;;;;5.25;4.25;;;;;21.22;50.99;101297.94;146633;672;45916;-72
2022/10/01 01:54:43;;;;;;;;;1.67;1.67;;;;;21.20;50.80;101291.72;146637;618;45020;-72
2022/10/01 01:57:40;;;;;;;;;4.00;2.67;;;;;21.19;51.63;101283.81;146637;719;45016;-71
2022/10/01 02:00:42;;;;;;;;;3.25;2.00;;;;;21.23;51.11;101297.06;146635;613;45012;-72
2022/10/01 02:03:45;;;;;;;;;3.50;1.75;;;;;21.19;51.55;101300.50;146618;658;46014;-72
2022/10/01 02:07:30;;;;;;;;;3.50;2.75;;;;;19.32;49.78;100980.16;146616;586;47010;-73
2022/10/01 02:11:07;;;;;;;;;1.25;1.25;;;;;19.49;49.50;101009.41;146618;707;46016;-68
2022/10/01 02:14:24;;;;;;;;;5.50;3.50;;;;;21.31;49.52;101339.41;146620;604;46021;-72
2022/10/01 02:18:00;;;;;;;;;5.75;2.00;;;;;19.53;49.33;101029.63;146615;573;47014;-76
2022/10/01 02:21:10;;;;;;;;;2.00;2.00;;;;;21.35;49.56;101357.09;146614;564;46021;-74
2022/10/01 02:24:29;;;;;;;;;1.25;1.25;;;;;21.35;49.83;101351.81;146618;660;46012;-74
2022/10/01 02:27:45;;;;;;;;;3.00;2.00;;;;;21.28;49.70;101346.34;146623;570;46020;-76
2022/10/01 02:30:45;;;;;;;;;3.00;3.00;;;;;21.24;49.68;101350.69;146619;629;46012;-71
2022/10/01 02:33:39;;;;;;;;;2.00;1.75;;;;;21.24;50.04;101350.69;146621;601;46020;-69
2022/10/01 02:36:40;;;;;;;;;1.67;1.00;;;;;21.23;49.26;101352.44;146618;569;46017;-70
2022/10/01 02:39:45;;;;;;;;;1.67;0.00;;;;;21.23;49.05;101346.28;146622;576;46020;-69
2022/10/01 02:42:52;;;;;;;;;2.00;1.00;;;;;21.27;49.07;101358.66;146619;564;46013;-70
2022/10/01 02:46:05;;;;;;;;;4.00;1.00;;;;;21.36;48.59;101358.84;146620;628;46020;-70
2022/10/01 02:49:03;;;;;;;;;0.00;0.00;;;;;21.42;49.14;101365.97;146619;575;46033;-69
2022/10/01 02:52:43;;;;;;;;;3.50;2.50;;;;;21.46;48.11;101373.06;146619;666;46010;-70
2022/10/01 02:55:41;;;;;;;;;3.00;2.75;;;;;21.45;48.84;101376.59;146616;723;46016;-71
2022/10/01 02:58:40;;;;;;;;;2.75;1.50;;;;;21.45;48.97;101377.47;146616;594;47010;-70
2022/10/01 03:01:41;;;;;;;;;2.25;1.00;;;;;21.45;49.24;101366.03;146619;655;46012;-74
2022/10/01 03:04:33;;;;;;;;;1.00;1.00;;;;;21.39;48.81;101364.19;146621;582;46020;-72
2022/10/01 03:07:40;;;;;;;;;4.00;1.25;;;;;21.29;48.87;101356.94;146615;618;46016;-73
2022/10/01 03:11:00;;;;;;;;;;;;;;;;;;;;;
2022/10/01 03:14:05;;;;;;;;;3.25;2.25;;;;;21.25;49.30;101367.44;146617;580;46016;-77
2022/10/01 03:17:10;;;;;;;;;1.00;1.00;;;;;21.26;48.78;101383.25;146623;613;46010;-77
2022/10/01 03:20:12;;;;;;;;;1.75;1.75;;;;;21.28;49.67;101400.00;146617;651;46017;-71
2022/10/01 03:23:14;;;;;;;;;2.00;2.00;;;;;21.27;50.06;101399.97;146619;565;47010;-70
2022/10/01 03:26:30;;;;;;;;;;;;;;;;;;;;;
2022/10/01 03:29:34;;;;;;;;;4.00;3.75;;;;;21.10;50.46;101424.28;146621;658;46021;-70
2022/10/01 03:32:42;;;;;;;;;5.75;4.50;;;;;21.02;50.49;101419.72;146619;578;46012;-71
2022/10/01 03:35:34;;;;;;;;;4.00;3.25;;;;;20.15;51.01;101271.25;146622;602;46021;-71
2022/10/01 03:38:28;;;;;;;;;4.00;3.00;;;;;20.91;51.01;101412.50;146616;673;46014;-70
2022/10/01 03:41:23;;;;;;;;;1.50;1.50;;;;;20.86;50.72;101408.88;146620;600;46028;-70
2022/10/01 03:44:18;;;;;;;;;2.75;2.25;;;;;20.80;50.81;101408.75;146620;572;46012;-70
2022/10/01 03:47:13;;;;;;;;;2.75;2.50;;;;;20.73;51.11;101413.00;146622;570;45020;-70
2022/10/01 03:50:23;;;;;;;;;3.00;2.00;;;;;20.71;49.64;101409.44;146612;569;47014;-71
2022/10/01 03:53:17;;;;;;;;;2.75;1.75;;;;;20.77;50.34;101419.22;146616;573;46020;-70
2022/10/01 03:56:13;;;;;;;;;3.00;2.00;;;;;20.82;50.04;101419.34;146616;578;46016;-70
2022/10/01 03:59:10;;;;;;;;;2.50;2.00;;;;;20.81;50.19;101412.25;146619;612;46021;-70
2022/10/01 04:02:07;;;;;;;;;1.75;1.75;;;;;20.77;49.98;101406.94;146619;690;46032;-70
2022/10/01 04:05:08;;;;;;;;;3.50;2.75;;;;;20.77;49.53;101412.19;146626;587;47012;-70
2022/10/01 04:08:04;;;;;;;;;1.00;1.00;;;;;20.82;49.97;101409.66;146618;595;46016;-70
2022/10/01 04:10:59;;;;;;;;;2.25;2.25;;;;;20.86;49.60;101405.34;146626;712;46010;-73
2022/10/01 04:14:10;;;;;;;;;3.50;2.50;;;;;20.88;49.82;101395.72;146618;659;46017;-72
2022/10/01 04:17:08;;;;;;;;;5.25;5.00;;;;;20.85;49.51;101393.03;146620;569;46010;-72
2022/10/01 04:20:03;;;;;;;;;3.75;3.00;;;;;20.87;49.95;101399.22;146617;593;47012;-71
2022/10/01 04:23:01;;;;;;;;;5.00;5.00;;;;;20.82;49.88;101383.31;146621;656;46020;-72
2022/10/01 04:26:02;;;;;;;;;5.25;4.25;;;;;20.77;50.73;101374.41;146618;657;46016;-73
2022/10/01 04:28:55;;;;;;;;;4.00;3.50;;;;;20.73;50.93;101362.03;146622;686;46010;-71
2022/10/01 04:31:50;;;;;;;;;4.00;3.50;;;;;20.70;50.81;101357.59;146617;589;46012;-73
2022/10/01 04:34:57;;;;;;;;;5.50;4.25;;;;;20.70;50.98;101347.06;146621;665;46012;-73
2022/10/01 04:37:51;;;;;;;;;4.75;4.75;;;;;20.72;51.43;101349.75;146615;670;46016;-73
2022/10/01 04:40:47;;;;;;;;;6.00;4.25;;;;;20.72;51.95;101357.66;146621;578;46020;-72
2022/10/01 04:43:41;;;;;;;;;5.25;4.00;;;;;20.76;52.29;101362.09;146618;642;47014;-71
2022/10/01 04:46:36;;;;;;;;;6.25;6.25;;;;;20.83;52.35;101378.94;146620;619;47010;-71
2022/10/01 04:49:50;;;;;;;;;;;;;;;;;;;;;
2022/10/01 04:53:00;;;;;;;;;8.75;8.25;;;;;19.19;51.38;101065.78;146620;571;46020;-71
2022/10/01 04:56:22;;;;;;;;;10.50;8.25;;;;;19.38;51.43;101093.34;146616;586;46916;-71
2022/10/01 04:59:17;;;;;;;;;10.50;6.75;;;;;21.38;52.08;101380.88;146620;581;46010;-71
2022/10/01 05:02:15;;;;;;;;;7.25;5.50;;;;;21.73;51.43;101385.84;146618;574;46016;-71
2022/10/01 05:05:14;;;;;;;;;12.00;10.00;;;;;22.17;50.36;101387.44;146621;579;46012;-72
2022/10/01 05:08:14;;;;;;;;;7.25;6.00;;;;;22.67;49.36;101377.50;146613;665;46012;-72
2022/10/01 05:11:12;;;;;;;;;7.50;6.50;;;;;23.25;49.57;101382.59;146620;601;47010;-74
2022/10/01 05:14:08;;;;;;;;;8.00;6.50;;;;;23.82;47.91;101376.03;146617;632;46016;-75
2022/10/01 05:17:05;;;;;;;;;9.75;7.50;;;;;24.39;47.59;101406.44;146619;613;46020;-75
2022/10/01 05:19:58;;;;;;;;;51.00;42.50;;;;;24.95;46.96;101417.28;146616;582;47012;-77
2022/10/01 05:22:59;;;;;;;;;9.50;9.50;;;;;25.45;45.87;101440.44;146611;563;46027;-76
2022/10/01 05:26:04;;;;;;;;;10.75;6.75;;;;;25.91;44.54;101459.97;146617;627;46015;-75
2022/10/01 05:29:11;;;;;;;;;11.00;8.75;;;;;26.32;44.44;101460.81;146620;567;47012;-75
2022/10/01 05:32:12;;;;;;;;;11.25;10.00;;;;;26.69;43.40;101466.94;146617;606;46016;-76
2022/10/01 05:35:21;;;;;;;;;13.50;12.00;;;;;26.99;42.90;101459.75;146614;574;46010;-72
2022/10/01 05:38:36;;;;;;;;;12.25;11.75;;;;;25.43;41.95;101160.78;146608;630;46016;-74
2022/10/01 05:41:54;;;;;;;;;9.75;8.75;;;;;27.09;41.95;101433.06;146614;575;46021;-74
2022/10/01 05:44:56;;;;;;;;;11.75;10.00;;;;;27.05;42.24;101438.41;146617;646;46012;-73
2022/10/01 05:47:49;;;;;;;;;11.00;9.00;;;;;26.90;42.03;101442.03;146614;672;46013;-73
2022/10/01 05:50:43;;;;;;;;;8.50;8.00;;;;;26.75;42.57;101452.75;146617;649;46012;-73
2022/10/01 05:53:39;;;;;;;;;8.00;8.00;;;;;26.58;43.01;101455.47;146613;573;47020;-73
2022/10/01 05:56:31;;;;;;;;;9.75;8.00;;;;;26.47;43.03;101443.03;146617;690;46917;-74
2022/10/01 05:59:27;;;;;;;;;14.75;11.75;;;;;26.40;43.20;101441.28;146621;579;46020;-73
2022/10/01 06:02:19;;;;;;;;;12.00;10.00;;;;;26.27;43.57;101439.56;146617;622;47012;-73
2022/10/01 06:05:12;;;;;;;;;10.00;10.00;;;;;26.25;44.46;101441.31;146620;606;46021;-74
2022/10/01 06:08:17;;;;;;;;;10.00;10.00;;;;;26.33;44.33;101449.31;146618;583;46012;-70
2022/10/01 06:11:18;;;;;;;;;3.25;1.00;;;;;26.45;44.13;101463.44;146620;577;46020;-70
2022/10/01 06:14:25;;;;;;;;;;;;;;;;;;;;;
2022/10/01 06:17:17;;;;;;;;;9.50;9.25;;;;;26.66;43.07;101454.53;146622;657;46010;-70
2022/10/01 06:20:30;;;;;;;;;12.00;11.00;;;;;25.01;43.10;101154.66;146617;605;46016;-70
2022/10/01 06:23:24;;;;;;;;;10.25;9.00;;;;;26.85;42.32;101450.03;146622;619;46020;-69
2022/10/01 06:26:21;;;;;;;;;8.50;7.50;;;;;26.95;42.50;101458.88;146617;702;47014;-70
2022/10/01 06:29:15;;;;;;;;;8.00;8.00;;;;;27.05;41.74;101462.38;146622;633;46020;-71
2022/10/01 06:32:22;;;;;;;;;11.50;10.75;;;;;27.09;41.32;101465.00;146617;662;46916;-69
2022/10/01 06:35:29;;;;;;;;;8.50;8.25;;;;;27.13;41.72;101465.84;146618;675;46010;-70
2022/10/01 06:38:29;;;;;;;;;11.25;9.25;;;;;27.22;42.29;101463.19;146618;580;46016;-69
2022/10/01 06:41:33;;;;;;;;;8.25;8.00;;;;;27.40;41.64;101464.84;146621;739;46029;-69
2022/10/01 06:44:28;;;;;;;;;6.00;6.00;;;;;27.54;41.84;101465.66;146618;679;46016;-73
2022/10/01 06:47:24;;;;;;;;;9.00;7.75;;;;;27.68;42.01;101462.88;146619;594;47010;-81
2022/10/01 06:50:16;;;;;;;;;8.00;5.75;;;;;27.84;41.49;101471.66;146619;639;46012;-82
2022/10/01 06:53:11;;;;;;;;;5.00;5.00;;;;;27.96;40.64;101468.91;146622;618;46020;-80
2022/10/01 06:56:15;;;;;;;;;0.00;0.00;;;;;28.04;40.58;101482.16;146619;606;46016;-80
2022/10/01 06:59:19;;;;;;;;;5.75;5.75;;;;;28.12;40.93;101495.41;146622;636;46020;-79
2022/10/01 07:02:28;;;;;;;;;7.00;6.00;;;;;28.24;41.14;101484.63;146619;652;45016;-80
2022/10/01 07:05:26;;;;;;;;;5.75;5.00;;;;;28.39;39.75;101489.81;146619;569;46020;-78
2022/10/01 07:08:28;;;;;;;;;5.25;5.25;;;;;28.50;40.45;101482.59;146616;569;46016;-80
2022/10/01 07:11:33;;;;;;;;;8.00;6.00;;;;;28.65;40.58;101476.22;146622;682;46012;-79
2022/10/01 07:14:41;;;;;;;;;9.50;6.75;;;;;28.81;40.22;101468.91;146612;637;46016;-77
2022/10/01 07:17:47;;;;;;;;;;;;;;;;;;;;;
2022/10/01 07:20:56;;;;;;;;;7.00;6.33;;;;;29.11;39.94;101475.69;146619;582;46012;-81
2022/10/01 07:23:54;;;;;;;;;4.00;4.00;;;;;29.23;40.33;101482.66;146614;565;46020;-78
2022/10/01 07:26:49;;;;;;;;;4.75;4.75;;;;;29.32;39.76;101470.94;146618;719;46012;-80
2022/10/01 07:29:46;;;;;;;;;6.50;6.25;;;;;29.37;39.19;101475.28;146621;628;46012;-79
2022/10/01 07:32:41;;;;;;;;;3.00;3.00;;;;;29.38;39.12;101473.53;146620;577;47013;-77
2022/10/01 07:35:52;;;;;;;;;3.50;3.50;;;;;29.35;40.00;101474.44;146621;551;46010;-77
2022/10/01 07:38:51;;;;;;;;;4.75;4.00;;;;;29.32;39.59;101466.47;146615;569;47014;-80
2022/10/01 07:41:55;;;;;;;;;5.00;3.67;;;;;29.31;40.25;101467.37;146620;563;46043;-72
2022/10/01 07:44:49;;;;;;;;;4.50;3.00;;;;;29.33;40.44;101475.38;146619;600;46012;-74
2022/10/01 07:48:00;;;;;;;;;4.00;3.33;;;;;29.41;40.06;101471.69;146613;565;46021;-73
2022/10/01 07:50:58;;;;;;;;;3.00;3.00;;;;;29.56;40.63;101464.31;146618;614;47012;-74
2022/10/01 07:53:53;;;;;;;;;3.67;3.00;;;;;29.69;40.24;101469.50;146615;631;46020;-73
2022/10/01 07:56:51;;;;;;;;;6.25;3.75;;;;;29.82;39.89;101463.97;146617;573;46017;-78
2022/10/01 07:59:44;;;;;;;;;3.00;2.67;;;;;29.97;39.55;101462.78;146620;604;46020;-73
2022/10/01 08:02:54;;;;;;;;;4.00;4.00;;;;;30.10;39.67;101465.25;146618;565;46036;-73
2022/10/01 08:05:54;;;;;;;;;4.25;3.25;;;;;30.21;39.90;101470.41;146614;640;46020;-75
2022/10/01 08:08:56;;;;;;;;;4.00;3.25;;;;;30.20;40.19;101481.16;146618;639;46016;-76
2022/10/01 08:11:55;;;;;;;;;2.50;2.50;;;;;30.01;40.93;101505.50;146623;569;46010;-73
2022/10/01 08:15:01;;;;;;;;;6.50;3.75;;;;;28.39;41.62;101249.75;146619;608;46016;-74
2022/10/01 08:17:57;;;;;;;;;3.00;3.00;;;;;29.81;41.42;101502.28;146621;590;47010;-71
2022/10/01 08:20:54;;;;;;;;;2.00;2.00;;;;;29.79;41.69;101517.47;146617;621;46016;-72
2022/10/01 08:23:51;;;;;;;;;2.00;2.00;;;;;29.77;41.58;101532.66;146618;575;46021;-73
2022/10/01 08:26:55;;;;;;;;;4.67;4.00;;;;;28.08;42.26;101242.16;146620;655;46033;-75
2022/10/01 08:29:58;;;;;;;;;5.67;4.00;;;;;29.84;41.57;101536.97;146622;615;46012;-72
2022/10/01 08:33:16;;;;;;;;;3.75;3.75;;;;;28.39;41.54;101265.78;146616;665;47012;-72
2022/10/01 08:36:21;;;;;;;;;3.00;3.00;;;;;30.03;41.55;101518.84;146622;569;46010;-75
2022/10/01 08:39:27;;;;;;;;;3.50;3.50;;;;;30.18;40.98;101512.34;146618;564;46017;-73
2022/10/01 08:42:58;;;;;;;;;3.00;3.00;;;;;30.38;40.80;101503.09;146621;597;47012;-74
2022/10/01 08:46:03;;;;;;;;;4.00;4.00;;;;;30.55;39.60;101507.25;146618;570;46017;-73
2022/10/01 08:49:43;;;;;;;;;3.00;3.00;;;;;28.86;40.01;101209.94;146623;644;46010;-75
2022/10/01 08:53:07;;;;;;;;;3.00;2.00;;;;;30.76;39.72;101498.78;146621;615;46012;-74
2022/10/01 08:56:04;;;;;;;;;4.00;3.67;;;;;30.89;39.54;101496.78;146621;573;46010;-74
2022/10/01 08:59:43;;;;;;;;;3.00;3.00;;;;;30.93;39.38;101477.03;146620;585;46016;-73
2022/10/01 09:02:47;;;;;;;;;3.00;3.00;;;;;30.99;38.56;101470.66;146621;571;46023;-72
2022/10/01 09:05:58;;;;;;;;;3.00;2.67;;;;;31.06;38.81;101466.97;146618;608;46016;-72
2022/10/01 09:09:29;;;;;;;;;3.00;3.00;;;;;29.97;39.33;101276.53;146621;603;46021;-72
2022/10/01 09:13:12;;;;;;;;;4.00;4.00;;;;;29.96;39.40;101247.13;146618;675;46016;-73
2022/10/01 09:16:42;;;;;;;;;4.50;4.00;;;;;31.14;39.58;101427.47;146620;639;47010;-72
2022/10/01 09:20:26;;;;;;;;;5.33;4.00;;;;;30.40;39.71;101294.34;146617;634;46016;-70
2022/10/01 09:23:35;;;;;;;;;5.00;4.67;;;;;31.02;40.15;101420.59;146623;594;46021;-73
2022/10/01 09:26:30;;;;;;;;;8.67;5.33;;;;;30.96;39.92;101425.22;146617;570;46016;-72
2022/10/01 09:29:36;;;;;;;;;7.00;5.00;;;;;30.95;40.41;101424.34;146611;607;46010;-74
2022/10/01 09:33:06;;;;;;;;;5.00;4.00;;;;;29.64;40.39;101213.91;146619;628;46033;-73
2022/10/01 09:36:36;;;;;;;;;6.00;5.75;;;;;31.13;39.87;101424.84;146620;645;46020;-73
2022/10/01 09:39:50;;;;;;;;;5.00;5.00;;;;;31.09;39.51;101433.84;146619;609;46012;-73
2022/10/01 09:42:49;;;;;;;;;4.00;4.00;;;;;30.98;40.33;101431.44;146619;595;46020;-75
2022/10/01 09:45:48;;;;;;;;;6.25;5.00;;;;;31.04;40.01;101431.28;146619;633;46013;-72
2022/10/01 09:49:10;;;;;;;;;3.33;3.00;;;;;31.17;39.05;101430.09;146621;566;46020;-72
2022/10/01 09:52:43;;;;;;;;;5.33;4.00;;;;;29.99;38.62;101225.69;146615;662;46016;-72
2022/10/01 09:56:15;;;;;;;;;;;;;;;;;;;;;
2022/10/01 09:59:35;;;;;;;;;10.25;8.00;;;;;31.13;39.39;101420.37;146617;589;46016;-72
2022/10/01 10:02:45;;;;;;;;;9.50;6.50;;;;;30.98;39.58;101410.88;146618;566;46020;-73
2022/10/01 10:05:51;;;;;;;;;8.00;6.33;;;;;30.99;39.18;101404.59;146619;614;46016;-72
2022/10/01 10:08:48;;;;;;;;;8.75;6.50;;;;;31.00;38.96;101389.44;146621;683;46021;-72
2022/10/01 10:11:47;;;;;;;;;7.75;6.00;;;;;31.01;38.99;101384.03;146617;573;46016;-73
2022/10/01 10:14:45;;;;;;;;;9.50;7.75;;;;;31.06;38.14;101378.56;146618;569;47010;-72
2022/10/01 10:17:49;;;;;;;;;5.50;5.00;;;;;31.16;38.18;101374.75;146618;567;46918;-72
2022/10/01 10:21:00;;;;;;;;;2.67;2.67;;;;;31.25;36.90;101373.66;146614;588;46020;-71
2022/10/01 10:24:37;;;;;;;;;5.00;4.00;;;;;31.37;37.07;101367.12;146611;595;46016;-72
2022/10/01 10:27:37;;;;;;;;;3.50;3.00;;;;;31.40;35.74;101359.00;146613;622;46020;-72
2022/10/01 10:30:33;;;;;;;;;3.50;3.00;;;;;31.35;34.85;101368.97;146610;710;47014;-71
2022/10/01 10:33:38;;;;;;;;;4.50;4.50;;;;;31.35;36.03;101366.31;146613;617;46020;-74
2022/10/01 10:36:50;;;;;;;;;3.00;3.00;;;;;31.45;35.44;101367.81;146611;588;46015;-74
2022/10/01 10:40:07;;;;;;;;;3.00;3.00;;;;;31.01;36.80;101287.59;146616;703;47010;-72
2022/10/01 10:43:06;;;;;;;;;3.00;3.00;;;;;31.85;35.53;101377.50;146612;604;46031;-71
2022/10/01 10:46:08;;;;;;;;;1.67;1.67;;;;;32.08;36.64;101375.09;146618;606;45021;-72
2022/10/01 10:49:26;;;;;;;;;3.00;3.00;;;;;32.28;36.30;101377.25;146611;613;46016;-72
2022/10/01 10:52:28;;;;;;;;;1.33;1.33;;;;;32.37;35.99;101376.09;146614;645;46021;-73
2022/10/01 10:56:13;;;;;;;;;2.50;2.25;;;;;31.09;33.63;101112.44;146611;666;46016;-72
2022/10/01 10:59:12;;;;;;;;;2.33;2.00;;;;;32.59;31.98;101357.59;146618;575;46010;-72
2022/10/01 11:02:29;;;;;;;;;3.00;2.33;;;;;32.52;33.68;101350.62;146606;610;49012;-73
2022/10/01 11:05:30;;;;;;;;;3.00;2.00;;;;;32.50;33.27;101333.69;146606;600;46020;-74
2022/10/01 11:08:28;;;;;;;;;5.25;4.00;;;;;32.45;32.31;101322.22;146606;627;46035;-72
2022/10/01 11:12:10;;;;;;;;;3.00;3.00;;;;;30.97;31.35;101076.19;146607;609;46020;-72
2022/10/01 11:15:29;;;;;;;;;2.00;2.00;;;;;32.25;30.83;101296.81;146603;573;46017;-73
2022/10/01 11:19:01;;;;;;;;;1.50;1.50;;;;;32.30;30.49;101296.66;146609;625;46010;-72
2022/10/01 11:22:51;;;;;;;;;2.50;2.50;;;;;30.86;32.87;101057.72;146604;709;46016;-71
2022/10/01 11:26:27;;;;;;;;;2.00;2.00;;;;;32.38;32.17;101302.69;146606;584;46020;-74
2022/10/01 11:29:55;;;;;;;;;1.67;1.67;;;;;31.03;30.45;101058.13;146608;613;46014;-72
2022/10/01 11:33:31;;;;;;;;;2.67;1.67;;;;;30.79;30.68;101035.59;146609;612;47012;-72
2022/10/01 11:37:24;;;;;;;;;1.67;1.67;;;;;30.70;30.20;101057.22;146605;579;47012;-72
2022/10/01 11:40:45;;;;;;;;;1.00;1.00;;;;;29.92;33.39;100923.69;146607;569;47008;-73
2022/10/01 11:43:54;;;;;;;;;1.33;1.33;;;;;32.07;29.61;101249.94;146607;681;46012;-71
2022/10/01 11:47:32;;;;;;;;;1.00;1.00;;;;;30.61;32.39;100985.22;146609;583;46010;-73
2022/10/01 11:50:28;;;;;;;;;2.00;2.00;;;;;32.12;30.50;101241.75;146609;621;46012;-73
2022/10/01 11:53:37;;;;;;;;;4.00;2.00;;;;;32.05;28.34;101230.31;146608;587;47010;-72
2022/10/01 12:00:05;;;;;;;;;3.00;3.00;;;;;31.83;32.43;101231.84;146608;573;46021;-72
2022/10/01 12:03:05;;;;;;;;;2.33;2.00;;;;;31.87;32.56;101220.09;146604;573;46016;-74
2022/10/01 12:06:28;;;;;;;;;3.00;3.00;;;;;30.50;32.83;100957.84;146609;637;46020;-73
2022/10/01 12:09:39;;;;;;;;;3.00;3.00;;;;;31.91;32.93;101195.87;146604;566;46016;-72
2022/10/01 12:13:18;;;;;;;;;1.25;1.25;;;;;31.95;33.60;101191.31;146605;677;47012;-72
2022/10/01 12:16:45;;;;;;;;;3.00;2.00;;;;;31.96;34.04;101185.00;146604;578;46016;-72
2022/10/01 12:19:45;;;;;;;;;5.50;3.75;;;;;31.97;34.25;101200.19;146606;607;47010;-72
2022/10/01 12:22:45;;;;;;;;;4.00;3.67;;;;;31.90;33.29;101196.81;146604;581;46017;-71
2022/10/01 12:26:04;;;;;;;;;2.00;2.00;;;;;31.72;31.66;101190.16;146609;600;46010;-73
2022/10/01 12:29:39;;;;;;;;;1.50;1.00;;;;;31.48;33.46;101182.81;146603;669;46017;-74
2022/10/01 12:33:20;;;;;;;;;3.00;3.00;;;;;30.47;35.01;101022.16;146609;654;46020;-72
2022/10/01 12:36:40;;;;;;;;;3.75;3.00;;;;;31.20;35.85;101172.81;146606;569;46016;-73
2022/10/01 12:39:58;;;;;;;;;4.00;3.00;;;;;31.17;35.70;101154.16;146605;640;46020;-73
2022/10/01 12:43:40;;;;;;;;;3.75;2.25;;;;;31.19;36.60;101146.09;146605;580;46031;-72
2022/10/01 12:47:35;;;;;;;;;4.25;4.25;;;;;29.72;37.60;100893.94;146607;717;46020;-73
2022/10/01 12:51:09;;;;;;;;;5.75;4.00;;;;;31.22;37.48;101146.88;146600;627;47923;-73
2022/10/01 12:54:40;;;;;;;;;4.00;4.00;;;;;31.32;37.36;101128.75;146610;563;46010;-73
2022/10/01 12:58:20;;;;;;;;;2.50;2.50;;;;;31.46;37.25;101136.41;146606;613;46916;-71
2022/10/01 13:02:02;;;;;;;;;5.50;4.50;;;;;30.00;37.26;100863.78;146607;709;47010;-72
2022/10/01 13:05:42;;;;;;;;;4.75;4.00;;;;;31.46;38.60;101112.28;146605;578;46015;-72
2022/10/01 13:09:07;;;;;;;;;3.25;3.25;;;;;31.28;38.54;101121.72;146608;689;46012;-71
2022/10/01 13:12:37;;;;;;;;;3.67;3.33;;;;;29.92;39.18;100898.75;146605;602;47013;-72
2022/10/01 13:15:48;;;;;;;;;5.00;5.00;;;;;31.16;39.21;101101.53;146607;613;46020;-71
2022/10/01 13:19:26;;;;;;;;;4.50;3.75;;;;;31.13;39.22;101096.25;146601;563;46016;-70
2022/10/01 13:22:59;;;;;;;;;3.50;3.50;;;;;31.11;39.38;101082.00;146602;649;46023;-70
2022/10/01 13:26:36;;;;;;;;;4.25;4.25;;;;;30.93;40.08;101082.53;146605;642;46016;-70
2022/10/01 13:29:53;;;;;;;;;6.00;5.00;;;;;30.61;41.23;101063.69;146608;662;46021;-74
2022/10/01 13:33:04;;;;;;;;;3.50;3.50;;;;;30.26;40.81;101056.59;146606;578;46016;-73
2022/10/01 13:36:26;;;;;;;;;5.50;4.50;;;;;30.02;43.33;101041.97;146608;609;46010;-75
2022/10/01 13:39:43;;;;;;;;;4.50;3.50;;;;;29.82;44.41;101050.50;146607;646;46033;-72
2022/10/01 13:42:51;;;;;;;;;4.50;4.50;;;;;29.74;42.99;101036.41;146608;566;46021;-78
2022/10/01 13:45:54;;;;;;;;;6.00;4.00;;;;;29.78;43.12;101023.84;146605;691;46917;-73
2022/10/01 13:48:55;;;;;;;;;4.00;4.00;;;;;29.96;43.03;101014.53;146610;598;46010;-73
2022/10/01 13:52:04;;;;;;;;;4.75;4.75;;;;;28.67;42.33;100755.78;146605;578;47012;-73
2022/10/01 13:55:18;;;;;;;;;;;;;;;;;;;;;
2022/10/01 13:58:51;;;;;;;;;4.75;4.75;;;;;28.81;43.69;100734.97;146606;684;46917;-74
2022/10/01 14:01:46;;;;;;;;;5.25;3.25;;;;;30.21;43.54;100978.25;146608;595;46020;-74
2022/10/01 14:05:02;;;;;;;;;4.75;4.75;;;;;30.22;45.06;100963.97;146605;586;46017;-76
2022/10/01 14:08:25;;;;;;;;;4.00;3.00;;;;;30.18;43.46;100956.91;146609;583;46020;-73
2022/10/01 14:18:36;;;;;;;;;;;;;;;;;;;;;
2022/10/01 14:21:54;;;;;;;;;3.00;2.75;;;;;29.77;43.94;100940.12;146606;665;46021;-72
2022/10/01 14:25:21;;;;;;;;;3.00;3.00;;;;;29.66;43.19;100913.69;146602;580;47014;-75
2022/10/01 14:29:03;;;;;;;;;4.00;4.00;;;;;29.62;44.66;100916.44;146606;600;46020;-74
2022/10/01 14:32:26;;;;;;;;;2.00;2.00;;;;;29.65;44.48;100911.03;146606;639;46016;-75
2022/10/01 14:36:04;;;;;;;;;3.50;3.50;;;;;29.65;44.86;100921.72;146608;578;46011;-74
2022/10/01 14:39:29;;;;;;;;;4.50;4.25;;;;;28.02;45.86;100660.28;146606;576;46016;-75
2022/10/01 14:42:22;;;;;;;;;3.75;2.25;;;;;29.42;45.48;100928.47;146607;567;46021;-74
2022/10/01 14:45:38;;;;;;;;;3.75;3.75;;;;;29.37;46.54;100930.34;146605;630;46012;-74
2022/10/01 14:49:06;;;;;;;;;3.00;3.00;;;;;27.87;45.56;100685.47;146608;608;46013;-77
2022/10/01 14:52:34;;;;;;;;;4.50;4.00;;;;;29.25;47.69;100903.91;146607;670;46012;-73
2022/10/01 14:55:55;;;;;;;;;4.75;3.25;;;;;27.65;45.32;100685.00;146606;646;47010;-73
2022/10/01 14:59:01;;;;;;;;;4.67;3.67;;;;;28.85;48.40;100888.78;146606;578;46016;-72
2022/10/01 15:02:32;;;;;;;;;;;;;;;;;;;;;
2022/10/01 15:05:45;;;;;;;;;3.50;2.25;;;;;28.53;45.99;100889.44;146604;564;46016;-73
2022/10/01 15:08:52;;;;;;;;;3.50;3.00;;;;;28.49;45.34;100869.97;146607;571;46012;-72